createdAt,value
2017-06-16T00:00:23.038Z,1013.02
2017-06-16T00:01:31.928Z,1013.04
2017-06-16T00:02:41.465Z,1013.05
2017-06-16T00:03:50.352Z,1013.03
2017-06-16T00:04:59.247Z,1012.99
2017-06-16T00:06:08.835Z,1013.01
2017-06-16T00:07:17.722Z,1013
2017-06-16T00:08:26.935Z,1013.02
2017-06-16T00:09:36.146Z,1013
2017-06-16T00:10:45.033Z,1013.01
2017-06-16T00:11:54.124Z,1013.01
2017-06-16T00:13:03.015Z,1013.03
2017-06-16T00:14:12.232Z,1013.02
2017-06-16T00:15:21.125Z,1012.99
2017-06-16T00:16:30.012Z,1012.97
2017-06-16T00:17:39.226Z,1012.95
2017-06-16T00:18:48.114Z,1012.97
2017-06-16T00:19:57.005Z,1012.97
2017-06-16T00:21:06.544Z,1012.99
2017-06-16T00:22:15.759Z,1013.05
2017-06-16T00:23:24.798Z,1013.05
2017-06-16T00:24:34.332Z,1013.02
2017-06-16T00:25:43.540Z,1012.99
2017-06-16T00:26:52.772Z,1013.05
2017-06-16T00:28:01.661Z,1013.05
2017-06-16T00:29:10.600Z,1013.07
2017-06-16T00:30:19.817Z,1013.06
2017-06-16T00:31:29.034Z,1013.03
2017-06-16T00:32:37.918Z,1013.04
2017-06-16T00:33:47.128Z,1013.04
2017-06-16T00:34:56.495Z,1013.08
2017-06-16T00:36:05.385Z,1013.1
2017-06-16T00:37:14.273Z,1013.09
2017-06-16T00:38:23.157Z,1013.09
2017-06-16T00:39:32.073Z,1013.11
2017-06-16T00:40:41.116Z,1013.07
2017-06-16T00:41:50.024Z,1013.06
2017-06-16T00:42:59.336Z,1013.1
2017-06-16T00:44:08.224Z,1013.02
2017-06-16T00:45:17.434Z,1013.04
2017-06-16T00:46:26.470Z,1013.08
2017-06-16T00:47:35.358Z,1013.03
2017-06-16T00:48:44.894Z,1013.01
2017-06-16T00:49:54.107Z,1013.03
2017-06-16T00:51:03.006Z,1013.02
2017-06-16T00:52:11.947Z,1013.04
2017-06-16T00:53:20.836Z,1012.98
2017-06-16T00:54:30.046Z,1012.94
2017-06-16T00:55:38.934Z,1012.95
2017-06-16T00:56:48.149Z,1012.98
2017-06-16T00:57:58.180Z,1012.97
2017-06-16T00:59:07.073Z,1012.98
2017-06-16T01:00:15.954Z,1013.05
2017-06-16T01:01:24.842Z,1013.06
2017-06-16T01:02:33.733Z,1013.1
2017-06-16T01:03:42.946Z,1013.07
2017-06-16T01:04:51.835Z,1013.11
2017-06-16T01:06:00.724Z,1013.11
2017-06-16T01:07:09.614Z,1013.16
2017-06-16T01:08:18.828Z,1013.17
2017-06-16T01:09:27.870Z,1013.19
2017-06-16T01:10:37.085Z,1013.21
2017-06-16T01:11:46.297Z,1013.28
2017-06-16T01:12:55.510Z,1013.28
2017-06-16T01:14:04.400Z,1013.28
2017-06-16T01:15:13.336Z,1013.33
2017-06-16T01:16:22.547Z,1013.39
2017-06-16T01:17:31.434Z,1013.37
2017-06-16T01:18:40.654Z,1013.41
2017-06-16T01:19:49.864Z,1013.39
2017-06-16T01:20:58.807Z,1013.41
2017-06-16T01:22:08.021Z,1013.39
2017-06-16T01:23:17.237Z,1013.47
2017-06-16T01:24:26.450Z,1013.48
2017-06-16T01:25:35.338Z,1013.49
2017-06-16T01:26:44.474Z,1013.5
2017-06-16T01:27:54.010Z,1013.54
2017-06-16T01:29:03.252Z,1013.58
2017-06-16T01:30:12.149Z,1013.59
2017-06-16T01:31:21.036Z,1013.54
2017-06-16T01:32:30.073Z,1013.54
2017-06-16T01:33:39.285Z,1013.53
2017-06-16T01:34:48.500Z,1013.58
2017-06-16T01:35:57.710Z,1013.56
2017-06-16T01:37:06.922Z,1013.59
2017-06-16T01:38:15.807Z,1013.63
2017-06-16T01:39:24.693Z,1013.71
2017-06-16T01:40:33.580Z,1013.75
2017-06-16T01:41:42.466Z,1013.77
2017-06-16T01:42:51.358Z,1013.75
2017-06-16T01:44:00.395Z,1013.76
2017-06-16T01:45:09.610Z,1013.68
2017-06-16T01:46:18.822Z,1013.67
2017-06-16T01:47:27.720Z,1013.66
2017-06-16T01:48:36.608Z,1013.69
2017-06-16T01:49:45.796Z,1013.71
2017-06-16T01:50:55.015Z,1013.67
2017-06-16T01:52:03.901Z,1013.69
2017-06-16T01:53:12.785Z,1013.69
2017-06-16T01:54:21.671Z,1013.66
2017-06-16T01:55:30.709Z,1013.7
2017-06-16T01:56:39.602Z,1013.73
2017-06-16T01:57:48.496Z,1013.7
2017-06-16T01:58:57.709Z,1013.75
2017-06-16T02:00:06.598Z,1013.76
2017-06-16T02:01:15.965Z,1013.76
2017-06-16T02:02:24.851Z,1013.77
2017-06-16T02:03:33.742Z,1013.8
2017-06-16T02:04:42.628Z,1013.81
2017-06-16T02:05:51.834Z,1013.82
2017-06-16T02:07:01.069Z,1013.78
2017-06-16T02:08:09.959Z,1013.8
2017-06-16T02:09:18.849Z,1013.76
2017-06-16T02:10:27.736Z,1013.76
2017-06-16T02:11:36.626Z,1013.75
2017-06-16T02:12:45.814Z,1013.74
2017-06-16T02:13:54.702Z,1013.77
2017-06-16T02:15:03.912Z,1013.71
2017-06-16T02:16:12.798Z,1013.77
2017-06-16T02:17:22.014Z,1013.75
2017-06-16T02:18:30.901Z,1013.76
2017-06-16T02:19:39.793Z,1013.74
2017-06-16T02:20:49.004Z,1013.75
2017-06-16T02:21:58.221Z,1013.79
2017-06-16T02:23:07.118Z,1013.75
2017-06-16T02:24:16.487Z,1013.72
2017-06-16T02:25:25.374Z,1013.75
2017-06-16T02:26:34.266Z,1013.74
2017-06-16T02:27:43.155Z,1013.76
2017-06-16T02:28:52.707Z,1013.77
2017-06-16T02:30:02.020Z,1013.8
2017-06-16T02:31:11.231Z,1013.73
2017-06-16T02:32:20.490Z,1013.72
2017-06-16T02:33:29.704Z,1013.74
2017-06-16T02:34:38.922Z,1013.77
2017-06-16T02:35:47.812Z,1013.73
2017-06-16T02:36:57.685Z,1013.76
2017-06-16T02:38:06.574Z,1013.71
2017-06-16T02:39:15.791Z,1013.73
2017-06-16T02:40:25.006Z,1013.77
2017-06-16T02:41:34.046Z,1013.74
2017-06-16T02:42:43.262Z,1013.78
2017-06-16T02:43:52.182Z,1013.77
2017-06-16T02:45:01.076Z,1013.77
2017-06-16T02:46:09.966Z,1013.78
2017-06-16T02:47:19.331Z,1013.75
2017-06-16T02:48:28.544Z,1013.72
2017-06-16T02:49:37.435Z,1013.68
2017-06-16T02:50:46.649Z,1013.62
2017-06-16T02:51:55.535Z,1013.65
2017-06-16T02:53:04.521Z,1013.65
2017-06-16T02:54:13.733Z,1013.63
2017-06-16T02:55:22.942Z,1013.64
2017-06-16T02:56:31.828Z,1013.64
2017-06-16T02:57:41.041Z,1013.64
2017-06-16T02:58:50.592Z,1013.7
2017-06-16T02:59:59.803Z,1013.73
2017-06-16T03:01:08.691Z,1013.74
2017-06-16T03:02:17.903Z,1013.76
2017-06-16T03:03:26.787Z,1013.74
2017-06-16T03:04:35.720Z,1013.77
2017-06-16T03:05:44.607Z,1013.79
2017-06-16T03:06:53.501Z,1013.8
2017-06-16T03:08:02.393Z,1013.83
2017-06-16T03:09:11.608Z,1013.86
2017-06-16T03:10:20.650Z,1013.86
2017-06-16T03:11:29.535Z,1013.87
2017-06-16T03:12:38.422Z,1013.92
2017-06-16T03:13:47.635Z,1013.99
2017-06-16T03:14:56.523Z,1014.05
2017-06-16T03:16:06.038Z,1014.02
2017-06-16T03:17:14.929Z,1014.07
2017-06-16T03:18:23.814Z,1014.1
2017-06-16T03:19:32.700Z,1014.09
2017-06-16T03:20:41.590Z,1014.11
2017-06-16T03:21:50.631Z,1014.12
2017-06-16T03:22:59.516Z,1014.14
2017-06-16T03:24:09.378Z,1014.14
2017-06-16T03:25:18.265Z,1014.14
2017-06-16T03:26:27.154Z,1014.13
2017-06-16T03:27:36.841Z,1014.24
2017-06-16T03:28:45.726Z,1014.21
2017-06-16T03:29:54.612Z,1014.2
2017-06-16T03:31:03.820Z,1014.18
2017-06-16T03:32:13.032Z,1014.23
2017-06-16T03:33:22.249Z,1014.27
2017-06-16T03:34:31.463Z,1014.25
2017-06-16T03:35:40.350Z,1014.26
2017-06-16T03:36:49.236Z,1014.25
2017-06-16T03:37:59.099Z,1014.28
2017-06-16T03:39:08.410Z,1014.25
2017-06-16T03:40:17.308Z,1014.22
2017-06-16T03:41:26.193Z,1014.23
2017-06-16T03:42:35.404Z,1014.27
2017-06-16T03:43:44.287Z,1014.25
2017-06-16T03:44:53.329Z,1014.27
2017-06-16T03:46:02.546Z,1014.26
2017-06-16T03:47:11.441Z,1014.3
2017-06-16T03:48:20.328Z,1014.34
2017-06-16T03:49:29.213Z,1014.31
2017-06-16T03:50:38.199Z,1014.35
2017-06-16T03:51:47.414Z,1014.37
2017-06-16T03:52:57.281Z,1014.38
2017-06-16T03:54:06.171Z,1014.36
2017-06-16T03:55:15.383Z,1014.41
2017-06-16T03:56:24.372Z,1014.42
2017-06-16T03:57:33.584Z,1014.44
2017-06-16T03:58:42.797Z,1014.41
2017-06-16T03:59:52.332Z,1014.39
2017-06-16T04:01:01.220Z,1014.36
2017-06-16T04:02:10.341Z,1014.38
2017-06-16T04:03:19.232Z,1014.4
2017-06-16T04:04:28.117Z,1014.42
2017-06-16T04:05:37.010Z,1014.41
2017-06-16T04:06:45.896Z,1014.43
2017-06-16T04:07:54.934Z,1014.43
2017-06-16T04:09:03.821Z,1014.44
2017-06-16T04:10:12.708Z,1014.46
2017-06-16T04:11:21.598Z,1014.45
2017-06-16T04:12:30.816Z,1014.43
2017-06-16T04:13:39.701Z,1014.44
2017-06-16T04:14:48.914Z,1014.45
2017-06-16T04:15:58.176Z,1014.43
2017-06-16T04:17:07.386Z,1014.47
2017-06-16T04:18:16.272Z,1014.4
2017-06-16T04:19:25.311Z,1014.44
2017-06-16T04:20:34.523Z,1014.44
2017-06-16T04:21:43.739Z,1014.45
2017-06-16T04:22:52.625Z,1014.48
2017-06-16T04:24:02.162Z,1014.53
2017-06-16T04:25:11.104Z,1014.5
2017-06-16T04:26:19.995Z,1014.49
2017-06-16T04:27:29.212Z,1014.43
2017-06-16T04:28:38.098Z,1014.46
2017-06-16T04:29:46.985Z,1014.53
2017-06-16T04:30:56.296Z,1014.5
2017-06-16T04:32:05.510Z,1014.51
2017-06-16T04:33:14.723Z,1014.54
2017-06-16T04:34:23.934Z,1014.58
2017-06-16T04:35:33.147Z,1014.57
2017-06-16T04:36:42.035Z,1014.6
2017-06-16T04:37:50.925Z,1014.57
2017-06-16T04:39:00.463Z,1014.57
2017-06-16T04:40:09.353Z,1014.59
2017-06-16T04:41:18.244Z,1014.56
2017-06-16T04:42:27.229Z,1014.66
2017-06-16T04:43:36.114Z,1014.6
2017-06-16T04:44:45.327Z,1014.62
2017-06-16T04:45:54.223Z,1014.62
2017-06-16T04:47:03.435Z,1014.65
2017-06-16T04:48:12.469Z,1014.66
2017-06-16T04:49:21.353Z,1014.67
2017-06-16T04:50:30.243Z,1014.68
2017-06-16T04:51:39.134Z,1014.69
2017-06-16T04:52:48.024Z,1014.67
2017-06-16T04:53:57.064Z,1014.68
2017-06-16T04:55:05.955Z,1014.68
2017-06-16T04:56:14.842Z,1014.69
2017-06-16T04:57:23.729Z,1014.71
2017-06-16T04:58:32.963Z,1014.72
2017-06-16T04:59:42.556Z,1014.77
2017-06-16T05:00:51.778Z,1014.76
2017-06-16T05:02:00.665Z,1014.71
2017-06-16T05:03:09.874Z,1014.74
2017-06-16T05:04:18.764Z,1014.78
2017-06-16T05:05:27.979Z,1014.8
2017-06-16T05:06:36.867Z,1014.73
2017-06-16T05:07:45.751Z,1014.79
2017-06-16T05:08:54.976Z,1014.83
2017-06-16T05:10:03.864Z,1014.79
2017-06-16T05:11:13.228Z,1014.86
2017-06-16T05:12:22.117Z,1014.82
2017-06-16T05:13:31.005Z,1014.89
2017-06-16T05:14:39.889Z,1014.91
2017-06-16T05:15:48.777Z,1014.9
2017-06-16T05:16:57.813Z,1014.89
2017-06-16T05:18:06.703Z,1014.87
2017-06-16T05:19:15.919Z,1014.95
2017-06-16T05:20:24.807Z,1014.96
2017-06-16T05:21:33.698Z,1015
2017-06-16T05:22:43.059Z,1015.01
2017-06-16T05:23:51.949Z,1015.02
2017-06-16T05:25:00.837Z,1015.03
2017-06-16T05:26:10.053Z,1015.02
2017-06-16T05:27:18.943Z,1015.04
2017-06-16T05:28:28.135Z,1015.01
2017-06-16T05:29:37.347Z,1015.05
2017-06-16T05:30:46.236Z,1015.01
2017-06-16T05:31:55.125Z,1015.03
2017-06-16T05:33:04.337Z,1015.12
2017-06-16T05:34:13.554Z,1015.09
2017-06-16T05:35:22.443Z,1015.02
2017-06-16T05:36:31.334Z,1014.97
2017-06-16T05:37:40.550Z,1015
2017-06-16T05:38:49.442Z,1015.04
2017-06-16T05:39:58.482Z,1015.1
2017-06-16T05:41:07.378Z,1015.15
2017-06-16T05:42:16.271Z,1015.12
2017-06-16T05:43:25.159Z,1015.15
2017-06-16T05:44:34.050Z,1015.11
2017-06-16T05:45:43.262Z,1015.13
2017-06-16T05:46:52.474Z,1015.19
2017-06-16T05:48:01.361Z,1015.21
2017-06-16T05:49:10.254Z,1015.22
2017-06-16T05:50:19.142Z,1015.22
2017-06-16T05:51:28.781Z,1015.3
2017-06-16T05:52:38.324Z,1015.27
2017-06-16T05:53:47.865Z,1015.35
2017-06-16T05:54:57.085Z,1015.29
2017-06-16T05:56:05.975Z,1015.3
2017-06-16T05:57:15.241Z,1015.34
2017-06-16T05:58:24.126Z,1015.33
2017-06-16T05:59:33.013Z,1015.35
2017-06-16T06:00:41.898Z,1015.36
2017-06-16T06:01:51.108Z,1015.42
2017-06-16T06:03:00.429Z,1015.41
2017-06-16T06:04:09.317Z,1015.4
2017-06-16T06:05:18.205Z,1015.43
2017-06-16T06:06:27.423Z,1015.34
2017-06-16T06:07:36.313Z,1015.4
2017-06-16T06:08:45.678Z,1015.43
2017-06-16T06:09:54.567Z,1015.43
2017-06-16T06:11:03.456Z,1015.46
2017-06-16T06:12:12.680Z,1015.48
2017-06-16T06:13:21.901Z,1015.51
2017-06-16T06:14:31.091Z,1015.5
2017-06-16T06:15:39.978Z,1015.45
2017-06-16T06:16:49.190Z,1015.55
2017-06-16T06:17:58.407Z,1015.51
2017-06-16T06:19:07.294Z,1015.61
2017-06-16T06:20:16.659Z,1015.59
2017-06-16T06:21:25.546Z,1015.6
2017-06-16T06:22:34.436Z,1015.6
2017-06-16T06:23:43.326Z,1015.62
2017-06-16T06:24:52.217Z,1015.75
2017-06-16T06:26:01.408Z,1015.69
2017-06-16T06:27:10.946Z,1015.78
2017-06-16T06:28:20.486Z,1015.74
2017-06-16T06:29:29.700Z,1015.73
2017-06-16T06:30:38.593Z,1015.79
2017-06-16T06:31:47.637Z,1015.83
2017-06-16T06:32:56.527Z,1015.83
2017-06-16T06:34:05.421Z,1015.79
2017-06-16T06:35:14.350Z,1015.78
2017-06-16T06:36:23.238Z,1015.78
2017-06-16T06:37:32.377Z,1015.83
2017-06-16T06:38:41.265Z,1015.86
2017-06-16T06:39:50.157Z,1015.93
2017-06-16T06:40:59.050Z,1015.82
2017-06-16T06:42:08.318Z,1015.79
2017-06-16T06:43:17.784Z,1015.82
2017-06-16T06:44:27.326Z,1015.84
2017-06-16T06:45:36.867Z,1015.91
2017-06-16T06:46:46.404Z,1015.83
2017-06-16T06:47:55.294Z,1015.88
2017-06-16T06:49:04.233Z,1015.9
2017-06-16T06:50:13.118Z,1015.87
2017-06-16T06:51:22.656Z,1015.95
2017-06-16T06:52:31.546Z,1015.95
2017-06-16T06:53:40.759Z,1015.88
2017-06-16T06:54:49.946Z,1015.9
2017-06-16T06:55:58.842Z,1015.92
2017-06-16T06:57:07.746Z,1015.89
2017-06-16T06:58:16.976Z,1015.9
2017-06-16T06:59:26.189Z,1015.92
2017-06-16T07:00:35.329Z,1015.94
2017-06-16T07:01:44.216Z,1015.89
2017-06-16T07:02:53.106Z,1015.86
2017-06-16T07:04:01.995Z,1015.88
2017-06-16T07:05:11.208Z,1015.78
2017-06-16T07:06:20.355Z,1015.93
2017-06-16T07:07:29.241Z,1015.9
2017-06-16T07:08:38.134Z,1015.75
2017-06-16T07:09:47.026Z,1015.85
2017-06-16T07:10:55.919Z,1015.83
2017-06-16T07:12:05.187Z,1015.84
2017-06-16T07:13:14.076Z,1015.86
2017-06-16T07:14:23.295Z,1015.81
2017-06-16T07:15:32.184Z,1015.82
2017-06-16T07:16:41.072Z,1015.84
2017-06-16T07:17:50.059Z,1015.84
2017-06-16T07:18:58.946Z,1015.88
2017-06-16T07:20:07.840Z,1015.84
2017-06-16T07:21:16.768Z,1015.9
2017-06-16T07:22:26.033Z,1015.87
2017-06-16T07:23:35.599Z,1015.97
2017-06-16T07:24:44.492Z,1015.87
2017-06-16T07:25:53.387Z,1015.99
2017-06-16T07:27:02.279Z,1016.01
2017-06-16T07:28:11.165Z,1016
2017-06-16T07:29:20.255Z,1016.03
2017-06-16T07:30:29.151Z,1015.93
2017-06-16T07:31:38.043Z,1015.92
2017-06-16T07:32:46.950Z,1015.9
2017-06-16T07:33:55.845Z,1015.92
2017-06-16T07:35:04.885Z,1015.92
2017-06-16T07:36:13.785Z,1015.99
2017-06-16T07:37:22.999Z,1015.99
2017-06-16T07:38:32.217Z,1015.99
2017-06-16T07:39:41.431Z,1015.95
2017-06-16T07:40:50.951Z,1015.96
2017-06-16T07:41:59.842Z,1015.96
2017-06-16T07:43:08.743Z,1015.94
2017-06-16T07:44:17.632Z,1016
2017-06-16T07:45:26.526Z,1015.97
2017-06-16T07:46:35.893Z,1016.06
2017-06-16T07:47:44.781Z,1015.9
2017-06-16T07:48:53.685Z,1015.96
2017-06-16T07:50:02.921Z,1016.02
2017-06-16T07:51:11.836Z,1016.03
2017-06-16T07:52:20.782Z,1016
2017-06-16T07:53:29.672Z,1015.99
2017-06-16T07:54:38.564Z,1015.96
2017-06-16T07:55:47.783Z,1015.98
2017-06-16T07:56:57.327Z,1016.05
2017-06-16T07:58:06.547Z,1016
2017-06-16T07:59:15.490Z,1015.96
2017-06-16T08:00:24.721Z,1016.07
2017-06-16T08:01:33.657Z,1016.04
2017-06-16T08:02:42.558Z,1015.98
2017-06-16T08:03:52.253Z,1016
2017-06-16T08:05:01.484Z,1016.06
2017-06-16T08:06:10.379Z,1016.05
2017-06-16T08:07:19.267Z,1016.06
2017-06-16T08:08:28.493Z,1016.06
2017-06-16T08:09:37.686Z,1016.09
2017-06-16T08:10:46.573Z,1016.09
2017-06-16T08:11:55.463Z,1016.17
2017-06-16T08:13:05.005Z,1016.16
2017-06-16T08:14:13.892Z,1016.11
2017-06-16T08:15:23.036Z,1016.22
2017-06-16T08:16:31.934Z,1016.09
2017-06-16T08:17:40.863Z,1016.2
2017-06-16T08:18:49.755Z,1016.15
2017-06-16T08:19:58.642Z,1016.13
2017-06-16T08:21:07.588Z,1016.19
2017-06-16T08:22:16.476Z,1016.17
2017-06-16T08:23:25.691Z,1016.2
2017-06-16T08:24:34.588Z,1016.2
2017-06-16T08:25:43.483Z,1016.25
2017-06-16T08:26:52.752Z,1016.24
2017-06-16T08:28:01.971Z,1016.18
2017-06-16T08:29:10.863Z,1016.31
2017-06-16T08:30:19.754Z,1016.24
2017-06-16T08:31:28.649Z,1016.2
2017-06-16T08:32:38.013Z,1016.18
2017-06-16T08:33:46.902Z,1016.21
2017-06-16T08:34:55.795Z,1016.28
2017-06-16T08:36:04.699Z,1016.24
2017-06-16T08:37:13.917Z,1016.3
2017-06-16T08:38:22.866Z,1016.24
2017-06-16T08:39:31.756Z,1016.27
2017-06-16T08:40:40.997Z,1016.34
2017-06-16T08:41:49.885Z,1016.37
2017-06-16T08:42:58.777Z,1016.29
2017-06-16T08:44:08.144Z,1016.33
2017-06-16T08:45:17.036Z,1016.33
2017-06-16T08:46:25.937Z,1016.34
2017-06-16T08:47:34.830Z,1016.36
2017-06-16T08:48:44.047Z,1016.33
2017-06-16T08:49:53.367Z,1016.24
2017-06-16T08:51:02.259Z,1016.32
2017-06-16T08:52:11.151Z,1016.29
2017-06-16T08:53:20.041Z,1016.31
2017-06-16T08:54:28.936Z,1016.31
2017-06-16T08:55:37.981Z,1016.31
2017-06-16T08:56:47.199Z,1016.38
2017-06-16T08:57:56.099Z,1016.41
2017-06-16T08:59:04.999Z,1016.41
2017-06-16T09:00:13.897Z,1016.37
2017-06-16T09:01:23.365Z,1016.33
2017-06-16T09:02:32.270Z,1016.4
2017-06-16T09:03:41.176Z,1016.3
2017-06-16T09:04:50.065Z,1016.41
2017-06-16T09:05:59.281Z,1016.43
2017-06-16T09:07:08.321Z,1016.38
2017-06-16T09:08:17.539Z,1016.43
2017-06-16T09:09:26.754Z,1016.32
2017-06-16T09:10:35.646Z,1016.37
2017-06-16T09:11:44.865Z,1016.33
2017-06-16T09:12:54.082Z,1016.4
2017-06-16T09:14:02.983Z,1016.46
2017-06-16T09:15:11.874Z,1016.48
2017-06-16T09:16:20.766Z,1016.51
2017-06-16T09:17:29.657Z,1016.35
2017-06-16T09:18:38.750Z,1016.58
2017-06-16T09:19:47.652Z,1016.5
2017-06-16T09:20:56.545Z,1016.78
2017-06-16T09:22:05.756Z,1016.64
2017-06-16T09:23:14.650Z,1016.62
2017-06-16T09:24:24.134Z,1016.52
2017-06-16T09:25:33.032Z,1016.56
2017-06-16T09:26:42.251Z,1016.66
2017-06-16T09:27:51.477Z,1016.6
2017-06-16T09:29:00.708Z,1016.64
2017-06-16T09:30:09.701Z,1016.6
2017-06-16T09:31:19.249Z,1016.65
2017-06-16T09:32:28.142Z,1016.58
2017-06-16T09:33:37.697Z,1016.59
2017-06-16T09:34:46.586Z,1016.6
2017-06-16T09:35:55.959Z,1016.51
2017-06-16T09:37:04.850Z,1016.67
2017-06-16T09:38:14.109Z,1016.6
2017-06-16T09:39:23.010Z,1016.65
2017-06-16T09:40:32.226Z,1016.77
2017-06-16T09:41:42.354Z,1016.75
2017-06-16T09:42:51.245Z,1016.95
2017-06-16T09:44:00.146Z,1016.95
2017-06-16T09:45:09.037Z,1017.01
2017-06-16T09:46:18.264Z,1017.1
2017-06-16T09:47:27.355Z,1017.04
2017-06-16T09:48:36.249Z,1017.11
2017-06-16T09:49:45.793Z,1017.04
2017-06-16T09:50:54.686Z,1017.13
2017-06-16T09:52:03.580Z,1017.12
2017-06-16T09:53:12.522Z,1017.17
2017-06-16T09:54:21.434Z,1017.13
2017-06-16T09:55:30.649Z,1017.15
2017-06-16T09:56:40.189Z,1017.11
2017-06-16T09:57:49.077Z,1017.13
2017-06-16T09:58:57.966Z,1017.15
2017-06-16T10:00:06.856Z,1017.11
2017-06-16T10:01:16.077Z,1017.14
2017-06-16T10:02:24.969Z,1017.13
2017-06-16T10:03:34.189Z,1017.15
2017-06-16T10:04:43.079Z,1017.15
2017-06-16T10:05:51.963Z,1017.14
2017-06-16T10:07:01.508Z,1017.1
2017-06-16T10:08:10.722Z,1017.19
2017-06-16T10:09:19.938Z,1017.21
2017-06-16T10:10:29.129Z,1017.09
2017-06-16T10:11:38.063Z,1017.09
2017-06-16T10:12:46.953Z,1017.05
2017-06-16T10:13:55.844Z,1017.1
2017-06-16T10:15:05.112Z,1017.16
2017-06-16T10:16:14.405Z,1017.12
2017-06-16T10:17:23.296Z,1017.14
2017-06-16T10:18:32.510Z,1017.14
2017-06-16T10:19:41.405Z,1017.15
2017-06-16T10:20:50.293Z,1017.09
2017-06-16T10:21:59.330Z,1017.1
2017-06-16T10:23:08.224Z,1017.1
2017-06-16T10:24:17.115Z,1017.09
2017-06-16T10:25:26.978Z,1017.17
2017-06-16T10:26:35.869Z,1017.21
2017-06-16T10:27:44.763Z,1017.17
2017-06-16T10:28:53.651Z,1017.15
2017-06-16T10:30:02.539Z,1017.2
2017-06-16T10:31:11.427Z,1017.21
2017-06-16T10:32:20.318Z,1017.1
2017-06-16T10:33:29.257Z,1017.15
2017-06-16T10:34:38.148Z,1017.18
2017-06-16T10:35:47.361Z,1017.21
2017-06-16T10:36:56.575Z,1017.25
2017-06-16T10:38:05.795Z,1017.32
2017-06-16T10:39:15.059Z,1017.32
2017-06-16T10:40:24.277Z,1017.28
2017-06-16T10:41:33.171Z,1017.29
2017-06-16T10:42:42.073Z,1017.31
2017-06-16T10:43:50.965Z,1017.34
2017-06-16T10:45:00.381Z,1017.35
2017-06-16T10:46:09.279Z,1017.36
2017-06-16T10:47:18.821Z,1017.29
2017-06-16T10:48:28.054Z,1017.32
2017-06-16T10:49:36.940Z,1017.35
2017-06-16T10:50:45.982Z,1017.3
2017-06-16T10:51:55.196Z,1017.36
2017-06-16T10:53:04.093Z,1017.33
2017-06-16T10:54:12.983Z,1017.33
2017-06-16T10:55:21.872Z,1017.32
2017-06-16T10:56:30.912Z,1017.39
2017-06-16T10:57:39.808Z,1017.47
2017-06-16T10:58:48.699Z,1017.44
2017-06-16T10:59:57.587Z,1017.46
2017-06-16T11:01:06.477Z,1017.42
2017-06-16T11:02:15.676Z,1017.5
2017-06-16T11:03:24.570Z,1017.57
2017-06-16T11:04:33.458Z,1017.52
2017-06-16T11:05:42.674Z,1017.53
2017-06-16T11:06:51.567Z,1017.58
2017-06-16T11:08:01.185Z,1017.57
2017-06-16T11:09:10.402Z,1017.57
2017-06-16T11:10:19.291Z,1017.55
2017-06-16T11:11:28.508Z,1017.65
2017-06-16T11:12:37.398Z,1017.65
2017-06-16T11:13:46.664Z,1017.67
2017-06-16T11:14:55.917Z,1017.6
2017-06-16T11:16:04.816Z,1017.56
2017-06-16T11:17:13.710Z,1017.56
2017-06-16T11:18:22.604Z,1017.63
2017-06-16T11:19:31.649Z,1017.65
2017-06-16T11:20:40.863Z,1017.68
2017-06-16T11:21:50.088Z,1017.73
2017-06-16T11:22:59.629Z,1017.78
2017-06-16T11:24:08.844Z,1017.76
2017-06-16T11:25:18.323Z,1017.8
2017-06-16T11:26:27.215Z,1017.71
2017-06-16T11:27:36.433Z,1017.92
2017-06-16T11:28:45.324Z,1017.83
2017-06-16T11:29:54.866Z,1017.88
2017-06-16T11:31:04.139Z,1017.87
2017-06-16T11:32:13.353Z,1017.78
2017-06-16T11:33:22.251Z,1017.79
2017-06-16T11:34:31.142Z,1017.81
2017-06-16T11:35:40.390Z,1017.86
2017-06-16T11:36:49.949Z,1017.83
2017-06-16T11:37:59.489Z,1017.89
2017-06-16T11:39:08.383Z,1017.89
2017-06-16T11:40:17.596Z,1017.93
2017-06-16T11:41:26.495Z,1017.94
2017-06-16T11:42:35.963Z,1017.95
2017-06-16T11:43:44.870Z,1018.04
2017-06-16T11:44:53.761Z,1017.94
2017-06-16T11:46:02.654Z,1018.07
2017-06-16T11:47:11.867Z,1017.89
2017-06-16T11:48:21.355Z,1017.88
2017-06-16T11:49:30.570Z,1017.96
2017-06-16T11:50:39.463Z,1018.03
2017-06-16T11:51:48.683Z,1018.12
2017-06-16T11:52:57.574Z,1018.13
2017-06-16T11:54:06.941Z,1018.01
2017-06-16T11:55:15.828Z,1018.02
2017-06-16T11:56:24.718Z,1018.01
2017-06-16T11:57:33.649Z,1018
2017-06-16T11:58:42.561Z,1018.02
2017-06-16T11:59:51.607Z,1018.06
2017-06-16T12:01:00.506Z,1018.02
2017-06-16T12:02:09.779Z,1018.02
2017-06-16T12:03:18.672Z,1018.13
2017-06-16T12:04:27.566Z,1018.04
2017-06-16T12:05:36.933Z,1018.04
2017-06-16T12:06:46.475Z,1018.01
2017-06-16T12:07:55.727Z,1017.94
2017-06-16T12:09:04.618Z,1018.07
2017-06-16T12:10:13.510Z,1018.17
2017-06-16T12:11:22.451Z,1018.14
2017-06-16T12:12:31.670Z,1018.11
2017-06-16T12:13:40.578Z,1018.07
2017-06-16T12:14:50.445Z,1018.11
2017-06-16T12:15:59.338Z,1018
2017-06-16T12:17:08.707Z,1018.03
2017-06-16T12:18:17.602Z,1018
2017-06-16T12:19:26.499Z,1018.07
2017-06-16T12:20:36.039Z,1018.09
2017-06-16T12:21:45.257Z,1018.22
2017-06-16T12:22:55.336Z,1018.06
2017-06-16T12:24:04.882Z,1018.06
2017-06-16T12:25:13.776Z,1018.12
2017-06-16T12:26:22.669Z,1018.04
2017-06-16T12:27:31.587Z,1017.98
2017-06-16T12:28:40.755Z,1018.05
2017-06-16T12:29:50.302Z,1017.92
2017-06-16T12:30:59.515Z,1018.02
2017-06-16T12:32:08.732Z,1018.05
2017-06-16T12:33:17.631Z,1018.04
2017-06-16T12:34:26.672Z,1018.2
2017-06-16T12:35:35.895Z,1018.11
2017-06-16T12:36:44.787Z,1018.14
2017-06-16T12:37:53.682Z,1018.19
2017-06-16T12:39:02.577Z,1018.19
2017-06-16T12:40:11.951Z,1018.3
2017-06-16T12:41:20.844Z,1018.19
2017-06-16T12:42:30.063Z,1018.23
2017-06-16T12:43:38.956Z,1018.16
2017-06-16T12:44:47.847Z,1018.24
2017-06-16T12:45:57.116Z,1018.29
2017-06-16T12:47:06.039Z,1018.29
2017-06-16T12:48:14.936Z,1018.3
2017-06-16T12:49:23.831Z,1018.29
2017-06-16T12:50:32.725Z,1018.29
2017-06-16T12:51:42.594Z,1018.28
2017-06-16T12:52:52.138Z,1018.31
2017-06-16T12:54:02.009Z,1018.29
2017-06-16T12:55:10.901Z,1018.26
2017-06-16T12:56:20.452Z,1018.28
2017-06-16T12:57:29.817Z,1018.22
2017-06-16T12:58:39.041Z,1018.19
2017-06-16T12:59:48.260Z,1018.19
2017-06-16T13:00:57.803Z,1018.29
2017-06-16T13:02:06.698Z,1018.17
2017-06-16T13:03:15.693Z,1018.32
2017-06-16T13:04:24.585Z,1018.43
2017-06-16T13:05:33.806Z,1018.44
2017-06-16T13:06:42.697Z,1018.5
2017-06-16T13:07:52.562Z,1018.48
2017-06-16T13:09:01.934Z,1018.68
2017-06-16T13:10:10.830Z,1018.52
2017-06-16T13:11:19.733Z,1018.58
2017-06-16T13:12:28.642Z,1018.63
2017-06-16T13:13:37.532Z,1018.49
2017-06-16T13:14:46.723Z,1018.7
2017-06-16T13:15:55.618Z,1018.52
2017-06-16T13:17:04.831Z,1018.54
2017-06-16T13:18:14.041Z,1018.49
2017-06-16T13:19:22.935Z,1018.46
2017-06-16T13:20:32.122Z,1018.48
2017-06-16T13:21:41.022Z,1018.54
2017-06-16T13:22:50.273Z,1018.58
2017-06-16T13:23:59.815Z,1018.58
2017-06-16T13:25:08.709Z,1018.57
2017-06-16T13:26:18.075Z,1018.63
2017-06-16T13:27:26.968Z,1018.59
2017-06-16T13:28:35.856Z,1018.58
2017-06-16T13:29:44.745Z,1018.58
2017-06-16T13:30:53.962Z,1018.61
2017-06-16T13:32:03.389Z,1018.6
2017-06-16T13:33:12.277Z,1018.61
2017-06-16T13:34:21.166Z,1018.58
2017-06-16T13:35:30.055Z,1018.64
2017-06-16T13:36:38.949Z,1018.59
2017-06-16T13:37:48.416Z,1018.58
2017-06-16T13:38:57.304Z,1018.7
2017-06-16T13:40:06.521Z,1018.73
2017-06-16T13:41:15.747Z,1018.71
2017-06-16T13:42:24.962Z,1018.83
2017-06-16T13:43:34.374Z,1018.8
2017-06-16T13:44:43.613Z,1018.75
2017-06-16T13:45:52.827Z,1018.8
2017-06-16T13:47:01.722Z,1018.77
2017-06-16T13:48:10.942Z,1018.77
2017-06-16T13:49:20.077Z,1018.7
2017-06-16T13:50:29.307Z,1018.74
2017-06-16T13:51:38.196Z,1018.67
2017-06-16T13:52:47.081Z,1018.76
2017-06-16T13:53:55.969Z,1018.82
2017-06-16T13:55:05.003Z,1018.86
2017-06-16T13:56:14.218Z,1018.78
2017-06-16T13:57:23.430Z,1018.79
2017-06-16T13:58:32.647Z,1018.9
2017-06-16T13:59:41.535Z,1018.89